Time;durP1;ratioP1;P1;durP2;ratioP2;P2;SDS_P1;SDS_P2;PMS_P1;PMS_P2;Temp;Humidity;BMP_temperature;BMP_pressure;BME280_temperature;BME280_humidity;BME280_pressure;Samples;Min_cycle;Max_cycle;Signal;HPM_P1;HPM_P2
2023/08/11 00:02:18;;;;;;;9.57;4.97;;;13.50;43.70;;;;;;5041781;28;46522;-67
2023/08/11 00:04:43;;;;;;;8.83;5.00;;;13.50;43.60;;;;;;5042940;28;45940;-67
2023/08/11 00:07:10;;;;;;;7.90;4.70;;;13.50;43.60;;;;;;5044049;28;45967;-68
2023/08/11 00:09:36;;;;;;;8.27;5.10;;;13.40;45.00;;;;;;5049248;28;46450;-67
2023/08/11 00:12:01;;;;;;;7.47;4.70;;;13.30;44.10;;;;;;5043029;28;46459;-68
2023/08/11 00:14:27;;;;;;;8.90;4.90;;;13.20;44.30;;;;;;5045003;28;46854;-67
2023/08/11 00:16:53;;;;;;;9.13;4.93;;;13.20;44.40;;;;;;5044075;28;46641;-70
2023/08/11 00:19:18;;;;;;;6.90;4.70;;;13.20;44.50;;;;;;5043237;28;46474;-69
2023/08/11 00:21:44;;;;;;;9.33;4.93;;;13.20;44.60;;;;;;5034033;28;46410;-66
2023/08/11 00:24:11;;;;;;;9.63;4.60;;;13.10;44.70;;;;;;5040309;28;46539;-67
2023/08/11 00:26:36;;;;;;;7.57;4.97;;;13.10;44.90;;;;;;5039568;28;47291;-67
2023/08/11 00:29:02;;;;;;;10.57;5.17;;;13.10;45.10;;;;;;5041309;28;46541;-67
2023/08/11 00:31:28;;;;;;;7.47;4.60;;;13.00;45.10;;;;;;5042990;28;46664;-68
2023/08/11 00:33:55;;;;;;;7.43;4.97;;;13.00;45.00;;;;;;5042317;28;46322;-68
2023/08/11 00:36:21;;;;;;;7.47;4.40;;;13.00;45.10;;;;;;5039505;28;47190;-67
2023/08/11 00:38:48;;;;;;;7.20;4.47;;;13.00;45.20;;;;;;5036693;28;46715;-67
2023/08/11 00:41:16;;;;;;;6.80;4.80;;;13.00;45.10;;;;;;5042789;28;46458;-68
2023/08/11 00:43:44;;;;;;;11.67;5.50;;;13.00;45.00;;;;;;5037968;28;46474;-67
2023/08/11 00:46:13;;;;;;;9.63;5.03;;;13.00;45.20;;;;;;5036556;28;46628;-68
2023/08/11 00:48:41;;;;;;;9.00;5.27;;;12.90;45.30;;;;;;5041576;28;46413;-67
2023/08/11 00:51:08;;;;;;;7.50;4.83;;;12.90;45.20;;;;;;5046253;28;46467;-69
2023/08/11 00:53:34;;;;;;;8.33;4.33;;;13.00;45.40;;;;;;5037799;28;46428;-68
2023/08/11 00:56:01;;;;;;;8.97;4.80;;;13.00;45.50;;;;;;5038183;28;46423;-69
2023/08/11 00:58:29;;;;;;;13.63;5.73;;;12.90;45.40;;;;;;5047030;28;46479;-68
2023/08/11 01:00:57;;;;;;;7.53;5.50;;;12.90;46.80;;;;;;5042607;28;46517;-69
2023/08/11 01:03:23;;;;;;;8.50;5.57;;;12.80;45.70;;;;;;5037616;28;46403;-69
2023/08/11 01:06:06;;;;;;;6.23;4.33;;;12.80;45.90;;;;;;5039376;28;46529;-66
2023/08/11 01:08:35;;;;;;;7.10;4.80;;;12.80;46.10;;;;;;5041040;28;46418;-68
2023/08/11 01:11:17;;;;;;;6.40;4.07;;;12.70;46.40;;;;;;5035801;28;45781;-67
2023/08/11 01:13:50;;;;;;;7.00;4.90;;;12.60;46.60;;;;;;5038459;28;46273;-69
2023/08/11 01:16:17;;;;;;;6.23;3.97;;;12.50;46.90;;;;;;5046783;28;46095;-68
2023/08/11 01:18:43;;;;;;;9.70;4.37;;;12.50;47.10;;;;;;5044177;28;46552;-68
2023/08/11 01:21:13;;;;;;;7.30;4.10;;;12.40;47.40;;;;;;5042560;28;46549;-67
2023/08/11 01:23:40;;;;;;;8.90;4.87;;;12.40;47.40;;;;;;5041907;28;46531;-67
2023/08/11 01:26:06;;;;;;;6.40;4.40;;;12.40;47.50;;;;;;5041913;28;47337;-68
2023/08/11 01:28:34;;;;;;;12.67;5.33;;;12.40;47.50;;;;;;5044204;28;46529;-68
2023/08/11 01:31:00;;;;;;;10.10;5.30;;;12.40;47.70;;;;;;5046291;28;46386;-69
2023/08/11 01:33:26;;;;;;;10.10;5.50;;;12.40;47.60;;;;;;5046108;28;46589;-68
2023/08/11 01:35:51;;;;;;;8.63;5.33;;;12.50;47.50;;;;;;5039663;28;47098;-68
2023/08/11 01:38:17;;;;;;;8.17;4.93;;;12.50;47.40;;;;;;5045847;28;46334;-69
2023/08/11 01:40:43;;;;;;;7.07;5.00;;;12.50;48.60;;;;;;5047494;28;46499;-68
2023/08/11 01:43:11;;;;;;;8.63;5.40;;;12.50;47.40;;;;;;5046448;28;46473;-69
2023/08/11 01:45:37;;;;;;;14.83;6.20;;;12.50;47.20;;;;;;5036533;28;46223;-68
2023/08/11 01:48:04;;;;;;;11.87;5.13;;;12.50;47.30;;;;;;5038652;28;46483;-67
2023/08/11 01:50:31;;;;;;;9.80;6.03;;;12.50;47.40;;;;;;5046113;28;46390;-68
2023/08/11 01:52:57;;;;;;;8.10;5.60;;;12.50;47.60;;;;;;5039008;28;46331;-69
2023/08/11 01:55:24;;;;;;;12.83;5.80;;;12.50;47.70;;;;;;5041209;28;48117;-67
2023/08/11 01:57:51;;;;;;;13.20;6.27;;;12.60;47.80;;;;;;5034556;28;45803;-68
2023/08/11 02:00:17;;;;;;;13.60;5.63;;;12.60;47.90;;;;;;5042831;28;46468;-68
2023/08/11 02:02:45;;;;;;;9.70;6.50;;;12.50;47.80;;;;;;5038296;28;46451;-68
2023/08/11 02:05:12;;;;;;;13.40;7.87;;;12.50;48.10;;;;;;5037283;28;46979;-66
2023/08/11 02:07:41;;;;;;;20.30;6.87;;;12.60;48.30;;;;;;5041575;28;46421;-69
2023/08/11 02:10:11;;;;;;;11.23;6.23;;;12.60;48.40;;;;;;5037308;28;46437;-68
2023/08/11 02:12:38;;;;;;;14.00;6.80;;;12.60;48.80;;;;;;5037497;28;46760;-69
2023/08/11 02:15:05;;;;;;;11.50;7.10;;;12.70;48.80;;;;;;5046478;28;46337;-67
2023/08/11 02:17:31;;;;;;;10.13;6.57;;;12.70;49.00;;;;;;5034836;28;46605;-67
2023/08/11 02:19:58;;;;;;;13.67;8.00;;;12.70;49.00;;;;;;5034918;28;46503;-67
2023/08/11 02:22:24;;;;;;;14.50;7.07;;;12.70;49.00;;;;;;5036570;28;46638;-69
2023/08/11 02:24:50;;;;;;;10.20;7.13;;;12.70;49.20;;;;;;5046469;28;46433;-68
2023/08/11 02:27:15;;;;;;;8.63;5.70;;;12.70;49.30;;;;;;5041566;28;46406;-68
2023/08/11 02:29:41;;;;;;;11.83;6.10;;;12.70;49.60;;;;;;5043266;28;46573;-68
2023/08/11 02:32:07;;;;;;;6.67;4.93;;;12.70;49.70;;;;;;5044110;28;46445;-70
2023/08/11 02:34:33;;;;;;;7.73;4.97;;;12.60;50.10;;;;;;5041601;28;47269;-69
2023/08/11 02:36:59;;;;;;;8.17;4.60;;;12.50;50.40;;;;;;5032680;28;46414;-67
2023/08/11 02:39:24;;;;;;;8.20;5.03;;;12.40;50.70;;;;;;5034057;28;46405;-67
2023/08/11 02:41:50;;;;;;;8.40;4.80;;;12.40;51.10;;;;;;5045666;28;46549;-68
2023/08/11 02:44:16;;;;;;;8.10;4.63;;;12.30;51.40;;;;;;5036991;28;46642;-69
2023/08/11 02:46:41;;;;;;;7.07;4.93;;;12.20;51.70;;;;;;5041971;28;46461;-70
2023/08/11 02:49:07;;;;;;;9.20;5.03;;;12.10;51.80;;;;;;5043432;28;45817;-67
2023/08/11 02:51:34;;;;;;;9.10;4.93;;;12.10;51.80;;;;;;5044927;28;46474;-68
2023/08/11 02:54:00;;;;;;;11.40;5.20;;;12.10;51.70;;;;;;5042258;28;47264;-68
2023/08/11 02:56:26;;;;;;;8.47;5.07;;;12.10;51.60;;;;;;5039528;28;46430;-67
2023/08/11 02:58:56;;;;;;;7.43;5.07;;;12.20;51.60;;;;;;5046123;28;46411;-70
2023/08/11 03:01:25;;;;;;;8.70;5.37;;;12.20;51.00;;;;;;5044148;28;46430;-67
2023/08/11 03:03:52;;;;;;;13.03;5.90;;;12.20;51.00;;;;;;5042060;28;46416;-69
2023/08/11 03:06:18;;;;;;;8.33;5.97;;;12.20;50.80;;;;;;5041680;28;45762;-67
2023/08/11 03:08:43;;;;;;;9.43;5.53;;;12.20;50.70;;;;;;5046558;28;46386;-69
2023/08/11 03:11:09;;;;;;;9.20;5.03;;;12.20;50.90;;;;;;5047596;28;46503;-68
2023/08/11 03:13:35;;;;;;;8.00;4.97;;;12.20;51.10;;;;;;5042878;28;48132;-69
2023/08/11 03:16:01;;;;;;;6.40;4.53;;;12.10;51.20;;;;;;5039351;28;46384;-68
2023/08/11 03:18:27;;;;;;;8.10;5.20;;;12.10;51.30;;;;;;5041505;28;46641;-69
2023/08/11 03:20:52;;;;;;;9.30;5.50;;;12.10;51.20;;;;;;5037731;28;46499;-68
2023/08/11 03:23:18;;;;;;;10.50;4.90;;;12.00;51.30;;;;;;5041273;28;46395;-69
2023/08/11 03:25:44;;;;;;;7.83;4.90;;;11.90;51.40;;;;;;5037296;28;46337;-68
2023/08/11 03:28:10;;;;;;;8.83;4.80;;;11.80;51.30;;;;;;5039805;28;46147;-67
2023/08/11 03:30:36;;;;;;;10.73;5.47;;;11.90;51.60;;;;;;5039956;28;46408;-67
2023/08/11 03:33:02;;;;;;;9.10;5.33;;;11.90;51.60;;;;;;5043686;28;47088;-68
2023/08/11 03:35:28;;;;;;;10.27;5.47;;;11.90;51.60;;;;;;5042292;28;46675;-69
2023/08/11 03:37:53;;;;;;;8.90;4.97;;;11.90;51.50;;;;;;5047162;28;46417;-67
2023/08/11 03:40:19;;;;;;;8.30;5.40;;;11.90;51.60;;;;;;5044292;28;46535;-68
2023/08/11 03:42:44;;;;;;;9.00;5.30;;;11.90;51.50;;;;;;5050198;28;45920;-68
2023/08/11 03:45:12;;;;;;;13.73;5.53;;;11.90;51.60;;;;;;5045025;28;46453;-68
2023/08/11 03:47:39;;;;;;;9.30;5.30;;;11.80;51.70;;;;;;5039679;28;45791;-67
2023/08/11 03:50:06;;;;;;;10.33;4.90;;;11.80;51.70;;;;;;5042305;28;46552;-68
2023/08/11 03:52:32;;;;;;;12.43;5.23;;;11.80;51.70;;;;;;5042908;28;46498;-67
2023/08/11 03:54:58;;;;;;;7.97;5.13;;;11.80;51.60;;;;;;5041531;28;46380;-66
2023/08/11 03:57:25;;;;;;;8.33;4.50;;;11.90;51.60;;;;;;5035270;28;46510;-68
2023/08/11 03:59:51;;;;;;;7.73;5.47;;;11.80;52.70;;;;;;5034498;28;46510;-68
2023/08/11 04:02:16;;;;;;;7.37;4.73;;;11.80;51.60;;;;;;5038776;28;46514;-67
2023/08/11 04:04:42;;;;;;;6.27;4.47;;;11.80;51.60;;;;;;5048422;28;46351;-67
2023/08/11 04:07:08;;;;;;;6.93;5.10;;;11.80;51.60;;;;;;5038338;28;45884;-69
2023/08/11 04:09:34;;;;;;;7.43;4.83;;;11.80;51.50;;;;;;5038861;28;46382;-68
2023/08/11 04:11:59;;;;;;;6.73;4.77;;;11.90;51.60;;;;;;5042777;28;46381;-68
2023/08/11 04:14:25;;;;;;;7.37;4.70;;;11.90;51.50;;;;;;5033273;28;46382;-67
2023/08/11 04:16:51;;;;;;;6.13;4.33;;;11.90;51.40;;;;;;5038860;28;46389;-69
2023/08/11 04:19:16;;;;;;;9.47;5.40;;;11.90;51.20;;;;;;5042078;28;46336;-68
2023/08/11 04:21:42;;;;;;;8.73;5.00;;;12.00;51.10;;;;;;5043651;28;46494;-67
2023/08/11 04:24:08;;;;;;;9.00;5.90;;;12.00;51.00;;;;;;5037517;28;46569;-67
2023/08/11 04:26:34;;;;;;;8.07;5.93;;;12.10;50.60;;;;;;5046981;28;46394;-69
2023/08/11 04:29:01;;;;;;;8.40;6.37;;;12.20;50.50;;;;;;5039369;28;46609;-68
2023/08/11 04:31:27;;;;;;;10.07;7.00;;;12.30;50.50;;;;;;5038739;28;46480;-70
2023/08/11 04:33:53;;;;;;;11.03;6.60;;;12.40;50.50;;;;;;5047094;28;46445;-69
2023/08/11 04:36:19;;;;;;;11.83;6.90;;;12.50;50.50;;;;;;5035817;28;46498;-67
2023/08/11 04:38:45;;;;;;;9.13;6.13;;;12.50;50.50;;;;;;5036359;28;46571;-69
2023/08/11 04:41:10;;;;;;;7.10;5.80;;;12.60;50.60;;;;;;5041259;28;47287;-68
2023/08/11 04:43:36;;;;;;;9.50;6.10;;;12.60;50.50;;;;;;5035763;28;45782;-67
2023/08/11 04:46:03;;;;;;;8.70;5.33;;;12.70;50.60;;;;;;5035240;28;46473;-69
2023/08/11 04:48:29;;;;;;;9.00;6.50;;;12.70;50.60;;;;;;5035261;28;46527;-68
2023/08/11 04:50:56;;;;;;;12.83;5.80;;;12.70;50.70;;;;;;5035638;28;47169;-68
2023/08/11 04:53:22;;;;;;;7.93;5.77;;;12.70;50.80;;;;;;5041076;28;46715;-67
2023/08/11 04:55:48;;;;;;;22.17;6.07;;;12.80;50.90;;;;;;5039510;28;46531;-68
2023/08/11 04:58:14;;;;;;;11.20;5.60;;;12.70;50.70;;;;;;5036264;28;46602;-73
2023/08/11 05:00:40;;;;;;;9.17;6.30;;;12.90;50.80;;;;;;5031556;28;48211;-69
2023/08/11 05:03:06;;;;;;;12.70;7.43;;;13.10;50.50;;;;;;5033490;28;46415;-71
2023/08/11 05:05:31;;;;;;;7.30;4.33;;;13.60;49.40;;;;;;5034066;28;46392;-70
2023/08/11 05:07:57;;;;;;;8.90;4.87;;;15.00;48.70;;;;;;5035612;28;46423;-69
2023/08/11 05:10:22;;;;;;;6.17;4.10;;;16.10;46.60;;;;;;5034774;28;46606;-69
2023/08/11 05:12:49;;;;;;;7.53;4.03;;;17.20;44.10;;;;;;5036766;28;46424;-69
2023/08/11 05:15:15;;;;;;;6.73;3.70;;;18.30;40.40;;;;;;5039342;28;46470;-68
2023/08/11 05:17:40;;;;;;;6.83;3.80;;;19.40;36.80;;;;;;5037528;28;45905;-68
2023/08/11 05:20:07;;;;;;;6.27;4.10;;;20.30;34.30;;;;;;5036001;28;46174;-69
2023/08/11 05:22:36;;;;;;;8.13;4.00;;;21.20;32.00;;;;;;5039049;28;45974;-68
2023/08/11 05:25:06;;;;;;;7.60;4.07;;;22.00;29.60;;;;;;5033558;28;46434;-69
2023/08/11 05:27:32;;;;;;;15.57;3.93;;;22.60;27.70;;;;;;5029390;27;46575;-68
2023/08/11 05:29:58;;;;;;;6.10;3.67;;;23.20;26.10;;;;;;5031428;28;46826;-69
2023/08/11 05:32:23;;;;;;;5.53;3.70;;;23.80;25.10;;;;;;5032596;28;46384;-68
2023/08/11 05:34:49;;;;;;;9.63;3.90;;;24.20;23.50;;;;;;5040764;28;46476;-70
2023/08/11 05:37:15;;;;;;;8.43;3.77;;;24.80;22.00;;;;;;5036620;28;46490;-69
2023/08/11 05:39:42;;;;;;;5.53;3.83;;;25.10;20.90;;;;;;5038829;28;45979;-68
2023/08/11 05:42:08;;;;;;;5.60;3.50;;;25.60;19.80;;;;;;5035260;28;46395;-68
2023/08/11 05:44:34;;;;;;;6.30;4.27;;;26.10;18.30;;;;;;5042738;28;46543;-68
2023/08/11 05:47:01;;;;;;;6.97;3.77;;;26.40;17.10;;;;;;5040436;28;46660;-68
2023/08/11 05:49:26;;;;;;;5.43;3.60;;;26.70;15.80;;;;;;5043803;28;46983;-68
2023/08/11 05:51:52;;;;;;;8.03;4.10;;;27.10;15.20;;;;;;5042147;28;46392;-67
2023/08/11 05:54:17;;;;;;;6.83;3.97;;;27.50;13.60;;;;;;5042149;28;46691;-67
2023/08/11 05:56:43;;;;;;;6.00;3.73;;;27.90;12.40;;;;;;5048276;28;46363;-69
2023/08/11 05:59:09;;;;;;;7.60;4.23;;;28.30;11.50;;;;;;5039391;28;47793;-68
2023/08/11 06:01:35;;;;;;;5.70;3.27;;;28.50;10.40;;;;;;5040331;28;46373;-68
2023/08/11 06:04:01;;;;;;;6.27;3.70;;;28.80;9.70;;;;;;5039240;28;46586;-67
2023/08/11 06:06:27;;;;;;;5.90;4.20;;;29.10;8.70;;;;;;5040551;28;46316;-68
2023/08/11 06:08:54;;;;;;;10.10;3.77;;;29.20;8.20;;;;;;5041259;28;46466;-68
2023/08/11 06:11:21;;;;;;;6.10;3.57;;;29.30;7.60;;;;;;5073904;22;46659;-67
2023/08/11 06:13:47;;;;;;;7.23;3.80;;;29.50;6.80;;;;;;5057784;28;46693;-67
2023/08/11 06:16:13;;;;;;;6.57;3.90;;;29.70;6.00;;;;;;5035065;28;46518;-69
2023/08/11 06:18:39;;;;;;;5.70;3.43;;;29.90;6.10;;;;;;5037558;28;47325;-67
2023/08/11 06:21:06;;;;;;;5.23;3.27;;;30.00;5.00;;;;;;5061104;28;46517;-66
2023/08/11 06:23:33;;;;;;;6.53;3.50;;;30.10;4.00;;;;;;5060865;28;46451;-66
2023/08/11 06:25:59;;;;;;;5.97;3.50;;;30.10;3.50;;;;;;5052580;28;46423;-67
2023/08/11 06:28:27;;;;;;;6.77;3.70;;;30.20;3.10;;;;;;5035485;28;46482;-66
2023/08/11 06:30:53;;;;;;;5.10;3.73;;;30.60;2.40;;;;;;5057968;28;46675;-65
2023/08/11 06:33:19;;;;;;;8.30;3.87;;;30.40;3.40;;;;;;5065841;28;45831;-68
2023/08/11 06:35:45;;;;;;;6.17;3.87;;;28.90;6.70;;;;;;5071298;28;46428;-67
2023/08/11 06:38:11;;;;;;;7.50;3.00;;;27.60;9.70;;;;;;5085100;28;46372;-67
2023/08/11 06:40:40;;;;;;;6.73;3.67;;;26.80;11.60;;;;;;5073735;28;46346;-66
2023/08/11 06:43:08;;;;;;;8.30;3.60;;;26.20;13.00;;;;;;5084217;28;46443;-68
2023/08/11 06:45:34;;;;;;;9.40;3.53;;;27.20;7.90;;;;;;5078065;28;46534;-67
2023/08/11 06:48:00;;;;;;;6.07;3.97;;;28.40;5.00;;;;;;5084972;28;47112;-67
2023/08/11 06:50:26;;;;;;;5.00;3.40;;;29.20;2.60;;;;;;5068234;28;46415;-66
2023/08/11 06:52:51;;;;;;;7.27;3.47;;;29.70;1.40;;;;;;5069435;28;46377;-68
2023/08/11 06:55:17;;;;;;;7.10;3.50;;;30.00;1.00;;;;;;5081565;28;46538;-66
2023/08/11 06:57:43;;;;;;;7.00;3.90;;;30.40;1.00;;;;;;5070410;28;46183;-67
2023/08/11 07:00:09;;;;;;;6.37;3.70;;;30.50;1.00;;;;;;5084921;28;46420;-66
2023/08/11 07:02:35;;;;;;;7.67;3.80;;;30.70;1.00;;;;;;5078905;28;46301;-66
2023/08/11 07:05:02;;;;;;;7.03;3.37;;;30.50;1.00;;;;;;5072747;28;46250;-67
2023/08/11 07:07:28;;;;;;;6.70;3.70;;;28.70;2.50;;;;;;5081081;28;47339;-67
2023/08/11 07:09:53;;;;;;;11.03;3.60;;;27.00;6.30;;;;;;5071010;28;46429;-67
2023/08/11 07:12:19;;;;;;;5.00;3.03;;;25.80;9.20;;;;;;5068849;28;46383;-68
2023/08/11 07:14:45;;;;;;;11.70;3.70;;;25.00;12.40;;;;;;5066203;28;46663;-67
2023/08/11 07:17:11;;;;;;;5.90;3.73;;;24.60;12.50;;;;;;5075982;28;47021;-67
2023/08/11 07:19:37;;;;;;;8.03;4.10;;;24.30;13.40;;;;;;5084534;28;46321;-67
2023/08/11 07:22:03;;;;;;;7.00;4.17;;;24.10;14.20;;;;;;5084853;28;46446;-67
2023/08/11 07:24:29;;;;;;;6.37;3.93;;;24.00;14.90;;;;;;5084221;28;46384;-67
2023/08/11 07:26:54;;;;;;;6.67;4.13;;;23.90;15.30;;;;;;5084587;28;46974;-68
2023/08/11 07:29:20;;;;;;;9.67;4.43;;;24.00;15.40;;;;;;5084501;28;46360;-66
2023/08/11 07:31:46;;;;;;;7.20;4.20;;;24.10;15.50;;;;;;5084593;28;46404;-67
2023/08/11 07:34:11;;;;;;;8.33;4.60;;;24.10;15.80;;;;;;5075796;28;46399;-68
2023/08/11 07:36:37;;;;;;;5.10;3.33;;;24.20;15.90;;;;;;5079458;28;46140;-68
2023/08/11 07:39:07;;;;;;;8.63;4.10;;;24.20;15.90;;;;;;5080598;28;46468;-68
2023/08/11 07:41:33;;;;;;;9.33;3.97;;;24.20;15.80;;;;;;5071845;28;46376;-66
2023/08/11 07:43:58;;;;;;;7.07;3.97;;;24.30;15.90;;;;;;5063506;28;46556;-67
2023/08/11 07:46:24;;;;;;;6.33;3.70;;;24.40;16.00;;;;;;5074973;28;45904;-67
2023/08/11 07:48:49;;;;;;;7.30;4.17;;;24.50;15.60;;;;;;5066049;28;46657;-67
2023/08/11 07:51:15;;;;;;;6.40;3.33;;;24.60;15.30;;;;;;5066362;28;46322;-67
2023/08/11 07:53:41;;;;;;;9.47;4.47;;;24.60;14.80;;;;;;5073260;28;46467;-68
2023/08/11 07:56:06;;;;;;;9.13;3.93;;;24.50;15.50;;;;;;5083878;28;47151;-66
2023/08/11 07:58:32;;;;;;;8.30;4.07;;;24.40;16.10;;;;;;5063907;28;46652;-67
2023/08/11 08:00:58;;;;;;;6.47;3.80;;;24.50;16.20;;;;;;5072174;28;46436;-67
2023/08/11 08:03:23;;;;;;;7.27;3.20;;;24.50;16.00;;;;;;5063384;28;46625;-67
2023/08/11 08:05:49;;;;;;;6.77;3.80;;;24.70;15.50;;;;;;5063486;28;46745;-68
2023/08/11 08:08:15;;;;;;;5.70;3.47;;;24.80;15.60;;;;;;5081676;28;46684;-68
2023/08/11 08:10:41;;;;;;;6.63;3.60;;;24.90;15.70;;;;;;5078596;28;46442;-67
2023/08/11 08:13:06;;;;;;;6.67;3.40;;;24.90;15.40;;;;;;5064058;28;46521;-69
2023/08/11 08:15:32;;;;;;;5.90;3.50;;;25.10;14.90;;;;;;5066664;28;46351;-67
2023/08/11 08:17:58;;;;;;;6.87;4.10;;;25.00;14.90;;;;;;5073841;28;46399;-67
2023/08/11 08:20:24;;;;;;;8.60;5.00;;;25.00;14.90;;;;;;5064803;28;46297;-68
2023/08/11 08:22:50;;;;;;;11.67;4.00;;;25.00;14.80;;;;;;5063696;28;46590;-67
2023/08/11 08:25:15;;;;;;;11.20;3.50;;;25.20;14.90;;;;;;5063227;28;46707;-67
2023/08/11 08:27:41;;;;;;;6.40;3.97;;;25.30;15.00;;;;;;5062969;28;46376;-67
2023/08/11 08:30:11;;;;;;;5.10;2.93;;;25.50;14.20;;;;;;5063375;28;46353;-66
2023/08/11 08:32:38;;;;;;;8.90;3.93;;;25.60;13.50;;;;;;5067225;28;46364;-67
2023/08/11 08:35:06;;;;;;;11.30;4.20;;;25.80;13.30;;;;;;5082734;28;48042;-68
2023/08/11 08:37:32;;;;;;;5.33;3.60;;;25.80;12.80;;;;;;5080017;28;46431;-67
2023/08/11 08:39:57;;;;;;;6.20;3.43;;;25.70;12.70;;;;;;5078474;28;46466;-68
2023/08/11 08:42:25;;;;;;;5.43;2.90;;;25.80;12.30;;;;;;5082422;28;46122;-73
2023/08/11 08:44:52;;;;;;;5.57;2.83;;;25.90;11.50;;;;;;5079988;28;46383;-69
2023/08/11 08:47:20;;;;;;;5.57;3.00;;;25.90;11.10;;;;;;5082121;28;46393;-67
2023/08/11 08:49:48;;;;;;;6.77;3.60;;;26.00;11.80;;;;;;5074980;28;46429;-73
2023/08/11 08:52:13;;;;;;;5.67;3.80;;;26.10;10.60;;;;;;5066109;27;47218;-67
2023/08/11 08:54:40;;;;;;;6.13;3.30;;;26.10;10.50;;;;;;5072045;27;46410;-68
2023/08/11 08:57:09;;;;;;;7.87;3.67;;;26.10;10.40;;;;;;5068661;27;46600;-69
2023/08/11 08:59:39;;;;;;;8.17;3.90;;;26.10;10.40;;;;;;5074425;27;46604;-68
2023/08/11 09:02:06;;;;;;;6.37;3.70;;;26.20;10.30;;;;;;5072435;28;46519;-68
2023/08/11 09:04:32;;;;;;;7.50;4.13;;;26.30;10.00;;;;;;5068468;27;46467;-69
2023/08/11 09:06:59;;;;;;;6.90;3.77;;;26.30;9.60;;;;;;5068907;28;46415;-69
2023/08/11 09:09:27;;;;;;;7.93;3.60;;;26.40;9.50;;;;;;5071608;27;46505;-68
2023/08/11 09:11:53;;;;;;;6.00;4.10;;;26.40;9.30;;;;;;5070372;27;46680;-68
2023/08/11 09:14:20;;;;;;;9.80;4.20;;;26.30;9.40;;;;;;5070934;27;46439;-70
2023/08/11 09:16:48;;;;;;;6.00;3.37;;;26.30;9.40;;;;;;5071479;27;46486;-67
2023/08/11 09:19:15;;;;;;;5.77;3.77;;;26.20;8.90;;;;;;5071667;27;46511;-67
2023/08/11 09:21:42;;;;;;;5.57;3.50;;;26.00;9.20;;;;;;5069319;27;46691;-67
2023/08/11 09:24:11;;;;;;;5.27;3.03;;;26.00;9.10;;;;;;5069672;27;46622;-67
2023/08/11 09:26:37;;;;;;;5.53;3.50;;;26.00;9.10;;;;;;5070284;27;45839;-67
2023/08/11 09:29:04;;;;;;;5.57;3.60;;;26.20;8.70;;;;;;5070044;28;46461;-67
2023/08/11 09:31:30;;;;;;;7.23;3.03;;;26.20;8.80;;;;;;5071637;27;46773;-67
2023/08/11 09:33:56;;;;;;;5.73;3.33;;;26.30;8.80;;;;;;5070847;27;47101;-68
2023/08/11 09:36:22;;;;;;;8.53;4.07;;;26.30;8.50;;;;;;5071713;27;46721;-68
2023/08/11 09:38:49;;;;;;;5.97;3.53;;;26.40;8.30;;;;;;5071686;27;46523;-69
2023/08/11 09:41:16;;;;;;;6.03;3.57;;;26.50;8.20;;;;;;5074335;27;46367;-68
2023/08/11 09:43:47;;;;;;;7.80;3.30;;;26.50;7.90;;;;;;5070787;27;46438;-67
2023/08/11 09:46:13;;;;;;;6.20;3.20;;;26.40;8.00;;;;;;5071673;27;45899;-67
2023/08/11 09:48:38;;;;;;;4.30;3.00;;;26.60;7.90;;;;;;5072202;27;46505;-67
2023/08/11 09:51:10;;;;;;;7.40;3.10;;;26.70;8.80;;;;;;5074233;27;46934;-67
2023/08/11 09:53:40;;;;;;;8.07;3.50;;;26.70;7.80;;;;;;5076228;28;46426;-66
2023/08/11 09:56:06;;;;;;;5.20;3.03;;;26.90;7.50;;;;;;5075759;27;46525;-67
2023/08/11 09:58:37;;;;;;;6.07;2.87;;;27.10;7.30;;;;;;5073976;27;46407;-67
2023/08/11 10:01:04;;;;;;;6.37;3.20;;;27.20;7.00;;;;;;5076673;27;46456;-66
2023/08/11 10:03:36;;;;;;;7.17;3.00;;;27.40;6.80;;;;;;5069419;28;47889;-67
2023/08/11 10:06:04;;;;;;;5.43;2.67;;;27.40;6.60;;;;;;5071960;27;46459;-69
2023/08/11 10:08:31;;;;;;;5.57;3.30;;;27.50;6.80;;;;;;5074101;27;46409;-68
2023/08/11 10:10:58;;;;;;;5.10;3.00;;;27.50;6.50;;;;;;5076578;27;46469;-68
2023/08/11 10:13:28;;;;;;;6.90;3.07;;;27.50;6.50;;;;;;5074843;28;46240;-67
2023/08/11 10:15:55;;;;;;;6.60;2.80;;;27.50;6.70;;;;;;5056728;27;46426;-68
2023/08/11 10:18:21;;;;;;;5.23;3.10;;;27.50;6.70;;;;;;5075888;27;46497;-67
2023/08/11 10:20:50;;;;;;;5.57;3.33;;;27.40;6.70;;;;;;5075144;27;46519;-67
2023/08/11 10:23:19;;;;;;;5.67;2.90;;;27.40;6.60;;;;;;5073283;27;47126;-67
2023/08/11 10:25:46;;;;;;;4.70;2.43;;;27.40;6.80;;;;;;5075097;27;46457;-67
2023/08/11 10:28:12;;;;;;;5.00;2.83;;;27.50;7.00;;;;;;5076769;27;46470;-67
2023/08/11 10:30:40;;;;;;;5.80;3.27;;;27.40;6.40;;;;;;5077078;28;46431;-68
2023/08/11 10:33:07;;;;;;;6.17;2.67;;;27.30;6.50;;;;;;5075942;27;46217;-68
2023/08/11 10:35:36;;;;;;;4.17;2.30;;;27.20;5.90;;;;;;5072946;28;46595;-68
2023/08/11 10:38:03;;;;;;;4.57;2.73;;;27.30;5.60;;;;;;5074026;27;46674;-69
2023/08/11 10:40:38;;;;;;;3.80;2.33;;;27.20;5.30;;;;;;5070627;27;46396;-72
2023/08/11 10:43:04;;;;;;;6.13;2.40;;;27.20;4.70;;;;;;5067684;28;47266;-72
2023/08/11 10:45:33;;;;;;;5.00;2.70;;;27.20;4.60;;;;;;5068847;27;45941;-69
2023/08/11 10:47:59;;;;;;;10.53;2.57;;;27.10;5.20;;;;;;5070379;28;46472;-68
2023/08/11 10:50:26;;;;;;;4.63;2.80;;;27.10;5.40;;;;;;5067306;27;46455;-68
2023/08/11 10:53:17;;;;;;;34.63;12.93;;;27.00;5.50;;;;;;5065301;27;46359;-71
2023/08/11 10:56:02;;;;;;;193.23;63.63;;;26.90;5.40;;;;;;5068905;27;46561;-69
2023/08/11 10:58:32;;;;;;;5.27;3.13;;;26.90;5.60;;;;;;5070049;27;46650;-72
2023/08/11 11:00:58;;;;;;;4.50;2.60;;;26.90;6.40;;;;;;5070670;27;46376;-69
2023/08/11 11:03:24;;;;;;;5.30;2.50;;;27.10;5.80;;;;;;5065186;27;46427;-69
2023/08/11 11:05:50;;;;;;;15.73;5.67;;;27.10;5.30;;;;;;5069247;27;45855;-67
2023/08/11 11:08:15;;;;;;;18.30;7.20;;;27.20;4.80;;;;;;5068551;28;46520;-68
2023/08/11 11:10:41;;;;;;;6.30;3.40;;;27.30;4.80;;;;;;5067080;27;46494;-67
2023/08/11 11:13:10;;;;;;;5.47;2.80;;;27.40;5.30;;;;;;5069143;27;46989;-69
2023/08/11 11:15:36;;;;;;;4.37;2.33;;;27.70;5.90;;;;;;5065624;27;46466;-68
2023/08/11 11:18:02;;;;;;;204.83;58.97;;;27.70;5.90;;;;;;5068116;27;46450;-70
2023/08/11 11:20:27;;;;;;;89.50;28.43;;;27.60;4.90;;;;;;5068463;27;46625;-69
2023/08/11 11:22:53;;;;;;;90.43;28.13;;;27.70;4.90;;;;;;5064480;27;47729;-68
2023/08/11 11:25:20;;;;;;;34.33;10.97;;;27.70;4.90;;;;;;5065791;27;46854;-69
2023/08/11 11:27:46;;;;;;;3.93;2.50;;;27.80;5.00;;;;;;5066666;27;46714;-68
2023/08/11 11:30:14;;;;;;;5.20;2.30;;;27.80;5.00;;;;;;5069574;27;45847;-68
2023/08/11 11:32:42;;;;;;;26.00;9.33;;;27.80;5.00;;;;;;5067510;28;46479;-70
2023/08/11 11:35:08;;;;;;;9.43;3.73;;;27.80;5.00;;;;;;5071393;27;46471;-70
2023/08/11 11:37:34;;;;;;;4.90;2.97;;;27.90;5.00;;;;;;5070022;28;46533;-69
2023/08/11 11:40:04;;;;;;;10.00;4.10;;;28.10;5.10;;;;;;5070305;27;46399;-71
2023/08/11 11:42:30;;;;;;;10.70;2.60;;;28.00;5.10;;;;;;5076560;27;47146;-69
2023/08/11 11:44:57;;;;;;;4.17;2.27;;;27.90;5.00;;;;;;5073641;27;46379;-71
2023/08/11 11:47:23;;;;;;;3.63;2.10;;;27.90;4.40;;;;;;5070411;28;46399;-70
2023/08/11 11:49:59;;;;;;;7.63;3.47;;;27.80;3.60;;;;;;5070776;27;46474;-71
2023/08/11 11:52:25;;;;;;;5.63;2.50;;;27.80;3.90;;;;;;5070378;28;47128;-71
2023/08/11 11:54:54;;;;;;;8.20;2.97;;;27.90;3.80;;;;;;5071314;27;46103;-70
2023/08/11 11:57:21;;;;;;;6.03;3.03;;;27.90;3.70;;;;;;5070360;27;45839;-71
2023/08/11 11:59:48;;;;;;;5.20;2.80;;;28.00;3.70;;;;;;5068677;27;46454;-70
2023/08/11 12:02:15;;;;;;;8.73;3.13;;;28.10;3.80;;;;;;5078817;27;46375;-71
2023/08/11 12:04:42;;;;;;;5.83;3.03;;;28.20;4.70;;;;;;5073375;28;46686;-69
2023/08/11 12:07:08;;;;;;;6.40;2.97;;;28.10;4.70;;;;;;5079045;28;46855;-70
2023/08/11 12:10:05;;;;;;;6.53;2.47;;;28.00;5.10;;;;;;5075460;28;46447;-70
2023/08/11 12:12:31;;;;;;;5.00;3.10;;;28.10;4.60;;;;;;5058199;28;47346;-68
2023/08/11 12:15:02;;;;;;;4.53;2.73;;;28.20;4.40;;;;;;5079140;28;46652;-69
2023/08/11 12:17:32;;;;;;;4.67;2.50;;;28.30;3.90;;;;;;5076553;28;46499;-72
2023/08/11 12:20:00;;;;;;;4.73;2.50;;;28.30;3.90;;;;;;5068357;27;46398;-70
2023/08/11 12:22:26;;;;;;;6.33;2.33;;;28.50;3.80;;;;;;5067862;28;46821;-70
2023/08/11 12:24:51;;;;;;;3.73;1.70;;;28.40;2.80;;;;;;5070184;27;46491;-70
2023/08/11 12:27:17;;;;;;;3.80;2.30;;;28.10;3.00;;;;;;5069027;28;46563;-71
2023/08/11 12:29:42;;;;;;;4.77;2.33;;;28.20;3.00;;;;;;5072705;27;46328;-70
2023/08/11 12:32:08;;;;;;;4.63;2.30;;;28.30;2.70;;;;;;5070844;28;47061;-71
2023/08/11 12:34:33;;;;;;;3.47;2.00;;;28.30;2.40;;;;;;5071468;27;46454;-70
2023/08/11 12:36:59;;;;;;;4.20;2.70;;;28.30;2.60;;;;;;5068236;28;46761;-70
2023/08/11 12:39:24;;;;;;;6.53;2.50;;;28.20;2.80;;;;;;5067579;27;46497;-71
2023/08/11 12:41:50;;;;;;;3.47;2.17;;;28.20;3.00;;;;;;5071002;28;46478;-70
2023/08/11 12:44:16;;;;;;;4.30;2.40;;;28.10;3.40;;;;;;5071259;27;46095;-72
2023/08/11 12:46:42;;;;;;;5.20;2.67;;;28.10;3.50;;;;;;5069438;28;46755;-71